createdAt,value
2017-12-12T00:01:21.474Z,3.39
2017-12-12T00:02:48.801Z,3.41
2017-12-12T00:04:15.988Z,3.42
2017-12-12T00:05:43.261Z,3.43
2017-12-12T00:07:10.455Z,3.44
2017-12-12T00:08:37.581Z,3.45
2017-12-12T00:10:04.497Z,3.47
2017-12-12T00:11:33.151Z,3.48
2017-12-12T00:12:59.245Z,3.49
2017-12-12T00:14:26.617Z,3.50
2017-12-12T00:15:55.019Z,3.50
2017-12-12T00:17:21.062Z,3.52
2017-12-12T00:18:49.360Z,3.53
2017-12-12T00:20:16.565Z,3.55
2017-12-12T00:21:43.740Z,3.58
2017-12-12T00:23:09.970Z,3.61
2017-12-12T00:24:37.040Z,3.63
2017-12-12T00:26:05.129Z,3.65
2017-12-12T00:27:31.403Z,3.68
2017-12-12T00:28:59.480Z,3.71
2017-12-12T00:30:25.817Z,3.73
2017-12-12T00:31:53.019Z,3.75
2017-12-12T00:33:21.453Z,3.78
2017-12-12T00:34:48.430Z,3.80
2017-12-12T00:36:14.676Z,3.81
2017-12-12T00:37:41.750Z,3.82
2017-12-12T00:39:08.958Z,3.83
2017-12-12T00:40:36.092Z,3.84
2017-12-12T00:42:04.249Z,3.85
2017-12-12T00:43:30.512Z,3.86
2017-12-12T00:44:57.784Z,3.88
2017-12-12T00:46:24.928Z,3.92
2017-12-12T00:47:53.202Z,3.94
2017-12-12T00:49:20.380Z,3.97
2017-12-12T00:50:46.662Z,3.99
2017-12-12T00:52:13.827Z,4.01
2017-12-12T00:53:41.300Z,4.03
2017-12-12T00:55:08.451Z,4.05
2017-12-12T00:56:35.330Z,4.07
2017-12-12T00:58:03.383Z,4.10
2017-12-12T00:59:30.565Z,4.12
2017-12-12T01:00:57.840Z,4.13
2017-12-12T01:02:24.119Z,4.15
2017-12-12T01:03:51.477Z,4.16
2017-12-12T01:05:18.470Z,4.17
2017-12-12T01:06:46.721Z,4.18
2017-12-12T01:08:12.811Z,4.20
2017-12-12T01:09:39.941Z,4.22
2017-12-12T01:11:07.052Z,4.24
2017-12-12T01:12:34.492Z,4.26
2017-12-12T01:14:02.051Z,4.28
2017-12-12T01:15:30.196Z,4.31
2017-12-12T01:16:57.307Z,4.34
2017-12-12T01:18:23.494Z,4.36
2017-12-12T01:19:51.905Z,4.38
2017-12-12T01:21:17.978Z,4.41
2017-12-12T01:22:46.227Z,4.43
2017-12-12T01:24:12.282Z,4.44
2017-12-12T01:25:39.669Z,4.46
2017-12-12T01:27:07.799Z,4.47
2017-12-12T01:28:33.943Z,4.49
2017-12-12T01:30:02.254Z,4.49
2017-12-12T01:31:28.537Z,4.50
2017-12-12T01:32:56.891Z,4.51
2017-12-12T01:34:22.779Z,4.53
2017-12-12T01:35:49.966Z,4.55
2017-12-12T01:37:17.130Z,4.57
2017-12-12T01:38:44.250Z,4.59
2017-12-12T01:40:11.437Z,4.61
2017-12-12T01:41:38.388Z,4.63
2017-12-12T01:43:05.475Z,4.66
2017-12-12T01:44:32.757Z,4.68
2017-12-12T01:45:59.963Z,4.70
2017-12-12T01:47:28.211Z,4.72
2017-12-12T01:48:55.528Z,4.75
2017-12-12T01:50:21.771Z,4.78
2017-12-12T01:51:48.958Z,4.81
2017-12-12T01:53:17.286Z,4.83
2017-12-12T01:54:43.420Z,4.85
2017-12-12T01:56:10.642Z,4.88
2017-12-12T01:57:38.914Z,4.90
2017-12-12T01:59:05.043Z,4.91
2017-12-12T02:00:32.276Z,4.94
2017-12-12T02:02:00.627Z,4.95
2017-12-12T02:03:26.892Z,4.99
2017-12-12T02:04:54.131Z,5.01
2017-12-12T02:06:21.349Z,5.02
2017-12-12T02:07:49.538Z,5.04
2017-12-12T02:09:16.961Z,5.04
2017-12-12T02:10:42.922Z,5.06
2017-12-12T02:12:11.163Z,5.09
2017-12-12T02:13:38.448Z,5.11
2017-12-12T02:15:05.250Z,5.12
2017-12-12T02:16:32.544Z,5.13
2017-12-12T02:17:59.797Z,5.14
2017-12-12T02:19:26.814Z,5.16
2017-12-12T02:20:53.167Z,5.19
2017-12-12T02:22:21.188Z,5.20
2017-12-12T02:23:47.108Z,5.20
2017-12-12T02:25:14.345Z,5.21
2017-12-12T02:26:42.431Z,5.23
2017-12-12T02:28:08.568Z,5.25
2017-12-12T02:29:35.620Z,5.27
2017-12-12T02:31:04.169Z,5.29
2017-12-12T02:32:30.426Z,5.31
2017-12-12T02:33:58.584Z,5.32
2017-12-12T02:35:24.615Z,5.33
2017-12-12T02:36:51.905Z,5.35
2017-12-12T02:38:19.236Z,5.36
2017-12-12T02:39:47.215Z,5.37
2017-12-12T02:41:14.208Z,5.38
2017-12-12T02:42:40.272Z,5.40
2017-12-12T02:44:08.440Z,5.42
2017-12-12T02:45:34.392Z,5.43
2017-12-12T02:47:01.458Z,5.44
2017-12-12T02:48:28.659Z,5.44
2017-12-12T02:49:57.018Z,5.45
2017-12-12T02:51:24.046Z,5.47
2017-12-12T02:52:50.507Z,5.48
2017-12-12T02:54:18.967Z,5.49
2017-12-12T02:55:45.154Z,5.50
2017-12-12T02:57:12.405Z,5.51
2017-12-12T02:58:39.662Z,5.52
2017-12-12T03:00:07.658Z,5.53
2017-12-12T03:01:34.907Z,5.53
2017-12-12T03:03:02.076Z,5.54
2017-12-12T03:04:29.212Z,5.55
2017-12-12T03:05:55.497Z,5.56
2017-12-12T03:07:22.705Z,5.57
2017-12-12T03:08:50.026Z,5.58
2017-12-12T03:10:18.240Z,5.59
2017-12-12T03:11:44.711Z,5.59
2017-12-12T03:13:11.935Z,5.59
2017-12-12T03:14:40.130Z,5.61
2017-12-12T03:16:06.299Z,5.61
2017-12-12T03:17:33.480Z,5.62
2017-12-12T03:19:00.851Z,5.63
2017-12-12T03:20:29.134Z,5.64
2017-12-12T03:21:56.378Z,5.65
2017-12-12T03:23:22.659Z,5.66
2017-12-12T03:24:49.895Z,5.66
2017-12-12T03:26:17.166Z,5.67
2017-12-12T03:27:44.337Z,5.68
2017-12-12T03:29:11.634Z,5.68
2017-12-12T03:30:39.867Z,5.69
2017-12-12T03:32:06.095Z,5.70
2017-12-12T03:33:33.383Z,5.71
2017-12-12T03:35:00.493Z,5.72
2017-12-12T03:36:27.740Z,5.72
2017-12-12T03:37:55.972Z,5.72
2017-12-12T03:39:22.416Z,5.74
2017-12-12T03:40:50.711Z,5.74
2017-12-12T03:42:17.070Z,5.76
2017-12-12T03:43:45.324Z,5.77
2017-12-12T03:45:11.617Z,5.78
2017-12-12T03:46:38.809Z,5.80
2017-12-12T03:48:05.974Z,5.82
2017-12-12T03:49:33.293Z,5.84
2017-12-12T03:51:01.398Z,5.85
2017-12-12T03:52:28.656Z,5.86
2017-12-12T03:53:54.891Z,5.88
2017-12-12T03:55:22.997Z,5.89
2017-12-12T03:56:49.542Z,5.90
2017-12-12T03:58:17.996Z,5.90
2017-12-12T04:01:11.454Z,5.91
2017-12-12T04:02:39.688Z,5.93
2017-12-12T04:04:05.866Z,5.93
2017-12-12T04:05:33.150Z,5.94
2017-12-12T04:07:00.368Z,5.95
2017-12-12T04:08:28.669Z,5.96
2017-12-12T04:09:55.926Z,5.96
2017-12-12T04:11:23.216Z,5.97
2017-12-12T04:12:50.715Z,5.97
2017-12-12T04:14:16.949Z,5.98
2017-12-12T04:15:45.228Z,5.97
2017-12-12T04:17:12.446Z,5.98
2017-12-12T04:18:38.651Z,5.98
2017-12-12T04:20:05.752Z,5.99
2017-12-12T04:21:33.984Z,5.99
2017-12-12T04:23:00.056Z,6.00
2017-12-12T04:24:28.272Z,6.00
2017-12-12T04:25:55.488Z,6.00
2017-12-12T04:27:21.956Z,6.00
2017-12-12T04:28:49.148Z,6.00
2017-12-12T04:30:16.416Z,6.00
2017-12-12T04:31:43.706Z,6.00
2017-12-12T04:33:11.192Z,6.01
2017-12-12T04:34:39.398Z,6.01
2017-12-12T04:36:05.509Z,6.01
2017-12-12T04:37:32.768Z,6.02
2017-12-12T04:39:01.182Z,6.03
2017-12-12T04:40:27.387Z,6.03
2017-12-12T04:41:54.462Z,6.03
2017-12-12T04:43:22.860Z,6.03
2017-12-12T04:44:48.966Z,6.05
2017-12-12T04:46:16.210Z,6.06
2017-12-12T04:47:43.235Z,6.06
2017-12-12T04:49:10.578Z,6.06
2017-12-12T04:50:38.545Z,6.07
2017-12-12T04:52:04.625Z,6.07
2017-12-12T04:53:32.459Z,6.07
2017-12-12T04:54:58.911Z,6.07
2017-12-12T04:56:26.128Z,6.07
2017-12-12T04:57:54.314Z,6.08
2017-12-12T04:59:20.487Z,6.08
2017-12-12T05:00:47.732Z,6.08
2017-12-12T05:02:14.900Z,6.08
2017-12-12T05:03:42.106Z,6.08
2017-12-12T05:05:09.133Z,6.07
2017-12-12T05:06:36.250Z,6.07
2017-12-12T05:08:04.252Z,6.07
2017-12-12T05:09:30.722Z,6.07
2017-12-12T05:10:57.951Z,6.07
2017-12-12T05:12:26.442Z,6.07
2017-12-12T05:13:52.632Z,6.07
2017-12-12T05:15:19.679Z,6.07
2017-12-12T05:16:48.028Z,6.07
2017-12-12T05:18:14.052Z,6.07
2017-12-12T05:19:41.315Z,6.07
2017-12-12T05:21:08.648Z,6.07
2017-12-12T05:22:35.800Z,6.06
2017-12-12T05:24:03.172Z,6.05
2017-12-12T05:25:30.462Z,6.04
2017-12-12T05:26:58.823Z,6.03
2017-12-12T05:28:24.968Z,6.03
2017-12-12T05:29:52.245Z,6.02
2017-12-12T05:31:19.362Z,6.02
2017-12-12T05:32:46.569Z,6.02
2017-12-12T05:34:13.958Z,6.02
2017-12-12T05:35:41.272Z,6.01
2017-12-12T05:37:08.557Z,6.01
2017-12-12T05:38:35.911Z,6.00
2017-12-12T05:40:03.055Z,5.99
2017-12-12T05:41:30.553Z,5.99
2017-12-12T05:42:57.531Z,5.98
2017-12-12T05:44:24.672Z,5.97
2017-12-12T05:45:51.921Z,5.97
2017-12-12T05:47:19.202Z,5.97
2017-12-12T05:48:46.597Z,5.96
2017-12-12T05:50:13.869Z,5.93
2017-12-12T05:51:41.207Z,5.93
2017-12-12T05:53:08.660Z,5.88
2017-12-12T05:54:36.692Z,5.85
2017-12-12T05:56:03.051Z,5.80
2017-12-12T05:57:30.395Z,5.75
2017-12-12T05:58:57.646Z,5.75
2017-12-12T06:00:25.061Z,5.73
2017-12-12T06:01:53.217Z,5.72
2017-12-12T06:03:19.299Z,5.70
2017-12-12T06:04:46.649Z,5.65
2017-12-12T06:06:14.930Z,5.62
2017-12-12T06:07:41.210Z,5.57
2017-12-12T06:09:08.297Z,5.52
2017-12-12T06:10:35.489Z,5.44
2017-12-12T06:12:03.687Z,5.38
2017-12-12T06:13:31.025Z,5.37
2017-12-12T06:14:57.067Z,5.35
2017-12-12T06:16:25.065Z,5.29
2017-12-12T06:17:51.280Z,5.23
2017-12-12T06:19:18.316Z,5.16
2017-12-12T06:20:45.589Z,5.09
2017-12-12T06:22:13.921Z,5.05
2017-12-12T06:23:40.004Z,5.04
2017-12-12T06:25:08.157Z,5.02
2017-12-12T06:26:34.190Z,4.95
2017-12-12T06:28:02.523Z,4.93
2017-12-12T06:29:29.841Z,4.88
2017-12-12T06:30:57.218Z,4.83
2017-12-12T06:32:23.525Z,4.78
2017-12-12T06:33:50.609Z,4.74
2017-12-12T06:35:17.874Z,4.74
2017-12-12T06:36:45.137Z,4.72
2017-12-12T06:38:13.325Z,4.68
2017-12-12T06:39:39.439Z,4.60
2017-12-12T06:41:07.777Z,4.49
2017-12-12T06:42:34.124Z,4.47
2017-12-12T06:44:01.372Z,4.39
2017-12-12T06:45:28.586Z,4.39
2017-12-12T06:46:55.802Z,4.37
2017-12-12T06:48:23.885Z,4.36
2017-12-12T06:49:49.946Z,4.31
2017-12-12T06:51:17.188Z,4.27
2017-12-12T06:52:45.611Z,4.17
2017-12-12T06:54:11.742Z,4.12
2017-12-12T06:55:38.951Z,4.12
2017-12-12T06:57:07.321Z,4.07
2017-12-12T06:58:33.437Z,4.01
2017-12-12T07:00:01.569Z,3.97
2017-12-12T07:01:29.008Z,3.99
2017-12-12T07:02:55.237Z,3.99
2017-12-12T07:04:22.573Z,4.00
2017-12-12T07:05:49.892Z,3.99
2017-12-12T07:07:17.295Z,3.97
2017-12-12T07:08:45.509Z,3.93
2017-12-12T07:10:11.672Z,3.90
2017-12-12T07:11:38.794Z,3.90
2017-12-12T07:13:05.813Z,3.86
2017-12-12T07:14:33.870Z,3.84
2017-12-12T07:16:00.289Z,3.84
2017-12-12T07:17:27.427Z,3.84
2017-12-12T07:18:54.739Z,3.82
2017-12-12T07:20:22.019Z,3.80
2017-12-12T07:21:49.256Z,3.82
2017-12-12T07:23:16.378Z,3.87
2017-12-12T07:24:44.440Z,3.86
2017-12-12T07:26:10.762Z,3.85
2017-12-12T07:27:38.983Z,3.91
2017-12-12T07:29:06.185Z,3.93
2017-12-12T07:30:32.320Z,3.95
2017-12-12T07:32:00.490Z,3.94
2017-12-12T07:33:26.645Z,3.88
2017-12-12T07:34:53.925Z,3.83
2017-12-12T07:36:21.192Z,3.81
2017-12-12T07:37:48.358Z,3.78
2017-12-12T07:39:15.664Z,3.76
2017-12-12T07:40:42.860Z,3.72
2017-12-12T07:42:10.155Z,3.71
2017-12-12T07:43:38.304Z,3.68
2017-12-12T07:45:04.609Z,3.67
2017-12-12T07:46:31.791Z,3.71
2017-12-12T07:47:58.996Z,3.72
2017-12-12T07:49:26.288Z,3.76
2017-12-12T07:50:54.480Z,3.79
2017-12-12T07:52:21.974Z,3.76
2017-12-12T07:53:48.124Z,3.75
2017-12-12T07:55:16.382Z,3.77
2017-12-12T07:56:42.561Z,3.78
2017-12-12T07:58:09.731Z,3.80
2017-12-12T07:59:37.806Z,3.79
2017-12-12T08:01:04.843Z,3.77
2017-12-12T08:02:31.156Z,3.75
2017-12-12T08:03:58.309Z,3.73
2017-12-12T08:05:26.438Z,3.72
2017-12-12T08:06:53.803Z,3.68
2017-12-12T08:08:20.259Z,3.65
2017-12-12T08:09:47.355Z,3.64
2017-12-12T08:11:15.756Z,3.63
2017-12-12T08:12:41.962Z,3.63
2017-12-12T08:14:09.234Z,3.65
2017-12-12T08:15:37.364Z,3.62
2017-12-12T08:17:03.597Z,3.66
2017-12-12T08:18:30.920Z,3.63
2017-12-12T08:19:58.044Z,3.59
2017-12-12T08:21:26.347Z,3.57
2017-12-12T08:22:52.483Z,3.60
2017-12-12T08:24:20.606Z,3.63
2017-12-12T08:25:47.954Z,3.60
2017-12-12T08:27:14.925Z,3.60
2017-12-12T08:28:41.046Z,3.55
2017-12-12T08:30:08.250Z,3.51
2017-12-12T08:31:35.348Z,3.51
2017-12-12T08:33:02.628Z,3.49
2017-12-12T08:34:29.880Z,3.51
2017-12-12T08:35:58.160Z,3.49
2017-12-12T08:37:24.259Z,3.46
2017-12-12T08:38:51.488Z,3.44
2017-12-12T08:40:18.712Z,3.46
2017-12-12T08:41:46.879Z,3.40
2017-12-12T08:43:14.272Z,3.39
2017-12-12T08:44:40.412Z,3.38
2017-12-12T08:46:08.510Z,3.34
2017-12-12T08:47:34.396Z,3.33
2017-12-12T08:49:01.674Z,3.35
2017-12-12T08:50:28.809Z,3.37
2017-12-12T08:51:56.943Z,3.39
2017-12-12T08:53:24.183Z,3.41
2017-12-12T08:54:51.653Z,3.42
2017-12-12T08:56:17.864Z,3.41
2017-12-12T08:57:45.065Z,3.39
2017-12-12T08:59:12.349Z,3.37
2017-12-12T09:00:39.565Z,3.34
2017-12-12T09:02:07.744Z,3.37
2017-12-12T09:03:33.973Z,3.41
2017-12-12T09:05:01.147Z,3.43
2017-12-12T09:06:28.242Z,3.45
2017-12-12T09:07:55.552Z,3.42
2017-12-12T09:09:22.725Z,3.37
2017-12-12T09:10:49.889Z,3.33
2017-12-12T09:12:17.001Z,3.34
2017-12-12T09:13:44.398Z,3.34
2017-12-12T09:15:12.569Z,3.33
2017-12-12T09:16:38.646Z,3.31
2017-12-12T09:18:06.690Z,3.26
2017-12-12T09:19:32.941Z,3.24
2017-12-12T09:21:00.192Z,3.30
2017-12-12T09:22:27.507Z,3.32
2017-12-12T09:23:55.651Z,3.30
2017-12-12T09:25:22.015Z,3.28
2017-12-12T09:26:49.049Z,3.25
2017-12-12T09:28:17.110Z,3.20
2017-12-12T09:29:44.302Z,3.17
2017-12-12T09:31:11.627Z,3.12
2017-12-12T09:32:38.718Z,3.13
2017-12-12T09:34:05.805Z,3.15
2017-12-12T09:35:31.818Z,3.13
2017-12-12T09:36:58.909Z,3.12
2017-12-12T09:38:26.208Z,3.10
2017-12-12T09:39:53.465Z,3.05
2017-12-12T09:41:20.824Z,3.06
2017-12-12T09:42:48.144Z,3.06
2017-12-12T09:44:16.408Z,3.07
2017-12-12T09:45:42.469Z,3.10
2017-12-12T09:47:09.600Z,3.06
2017-12-12T09:48:37.022Z,3.06
2017-12-12T09:50:04.164Z,3.01
2017-12-12T09:51:32.440Z,3.03
2017-12-12T09:52:58.603Z,3.02
2017-12-12T09:54:25.887Z,2.99
2017-12-12T09:55:54.189Z,3.01
2017-12-12T09:57:21.131Z,3.01
2017-12-12T09:58:47.515Z,3.04
2017-12-12T10:00:15.641Z,3.04
2017-12-12T10:01:41.908Z,2.98
2017-12-12T10:03:09.177Z,2.96
2017-12-12T10:04:37.263Z,2.93
2017-12-12T10:06:04.281Z,2.92
2017-12-12T10:07:31.456Z,2.93
2017-12-12T10:08:58.771Z,2.95
2017-12-12T10:10:25.045Z,2.95
2017-12-12T10:11:53.267Z,2.99
2017-12-12T10:13:20.553Z,2.99
2017-12-12T10:14:47.648Z,3.02
2017-12-12T10:16:13.914Z,3.07
2017-12-12T10:17:42.068Z,3.10
2017-12-12T10:19:08.237Z,3.10
2017-12-12T10:20:36.372Z,3.13
2017-12-12T10:22:02.404Z,3.12
2017-12-12T10:23:30.583Z,3.11
2017-12-12T10:24:56.910Z,3.12
2017-12-12T10:26:24.140Z,3.09
2017-12-12T10:27:51.304Z,3.04
2017-12-12T10:29:18.636Z,3.02
2017-12-12T10:30:46.728Z,3.01
2017-12-12T10:32:13.102Z,3.02
2017-12-12T10:33:40.428Z,3.03
2017-12-12T10:35:08.476Z,3.01
2017-12-12T10:36:34.772Z,3.01
2017-12-12T10:38:01.947Z,2.98
2017-12-12T10:39:29.293Z,2.97
2017-12-12T10:40:57.574Z,2.95
2017-12-12T10:42:23.632Z,2.97
2017-12-12T10:43:50.823Z,3.01
2017-12-12T10:45:18.152Z,3.03
2017-12-12T10:46:46.269Z,3.00
2017-12-12T10:48:13.760Z,2.99
2017-12-12T10:49:39.777Z,2.99
2017-12-12T10:51:07.929Z,3.02
2017-12-12T10:52:34.088Z,2.99
2017-12-12T10:54:01.232Z,2.97
2017-12-12T10:55:28.498Z,2.97
2017-12-12T10:56:56.863Z,2.98
2017-12-12T10:58:24.006Z,2.97
2017-12-12T10:59:51.034Z,2.97
2017-12-12T11:01:17.212Z,2.99
2017-12-12T11:02:44.494Z,3.01
2017-12-12T11:04:12.651Z,3.02
2017-12-12T11:05:38.791Z,3.00
2017-12-12T11:07:05.990Z,3.02
2017-12-12T11:08:33.254Z,3.00
2017-12-12T11:10:00.452Z,3.01
2017-12-12T11:11:27.685Z,3.00
2017-12-12T11:12:55.786Z,3.02
2017-12-12T11:14:23.062Z,3.06
2017-12-12T11:15:50.163Z,3.05
2017-12-12T11:17:17.575Z,3.02
2017-12-12T11:18:43.722Z,3.02
2017-12-12T11:20:10.887Z,3.03
2017-12-12T11:21:38.143Z,3.00
2017-12-12T11:23:05.227Z,2.99
2017-12-12T11:24:32.505Z,2.99
2017-12-12T11:25:59.746Z,3.00
2017-12-12T11:27:28.112Z,3.02
2017-12-12T11:28:55.086Z,2.99
2017-12-12T11:30:22.396Z,3.00
2017-12-12T11:31:49.551Z,2.95
2017-12-12T11:33:16.059Z,2.93
2017-12-12T11:34:44.137Z,2.93
2017-12-12T11:36:11.344Z,2.91
2017-12-12T11:37:38.551Z,2.88
2017-12-12T11:39:04.600Z,2.90
2017-12-12T11:40:31.757Z,2.93
2017-12-12T11:41:59.026Z,2.92
2017-12-12T11:43:26.232Z,2.89
2017-12-12T11:44:53.559Z,2.88
2017-12-12T11:46:21.056Z,2.87
2017-12-12T11:47:48.244Z,2.85
2017-12-12T11:49:16.384Z,2.84
2017-12-12T11:50:42.718Z,2.80
2017-12-12T11:52:09.831Z,2.80
2017-12-12T11:53:38.038Z,2.79
2017-12-12T11:55:04.190Z,2.79
2017-12-12T11:56:31.406Z,2.83
2017-12-12T11:57:59.511Z,2.80
2017-12-12T11:59:25.822Z,2.76
2017-12-12T12:00:53.916Z,2.74
2017-12-12T12:02:20.085Z,2.76
2017-12-12T12:03:48.289Z,2.72
2017-12-12T12:05:14.567Z,2.68
2017-12-12T12:06:41.729Z,2.70
2017-12-12T12:08:09.969Z,2.69
2017-12-12T12:09:36.082Z,2.66
2017-12-12T12:11:04.375Z,2.65
2017-12-12T12:12:30.667Z,2.64
2017-12-12T12:13:58.801Z,2.64
2017-12-12T12:15:25.001Z,2.65
2017-12-12T12:16:53.061Z,2.67
2017-12-12T12:18:20.496Z,2.66
2017-12-12T12:19:47.865Z,2.64
2017-12-12T12:21:14.779Z,2.62
2017-12-12T12:22:41.053Z,2.60
2017-12-12T12:24:09.269Z,2.57
2017-12-12T12:25:35.341Z,2.51
2017-12-12T12:27:03.576Z,2.49
2017-12-12T12:28:29.966Z,2.44
2017-12-12T12:29:58.062Z,2.45
2017-12-12T12:31:24.870Z,2.44
2017-12-12T12:32:51.260Z,2.39
2017-12-12T12:34:18.486Z,2.38
2017-12-12T12:35:46.909Z,2.39
2017-12-12T12:37:14.137Z,2.38
2017-12-12T12:38:39.982Z,2.36
2017-12-12T12:40:08.318Z,2.36
2017-12-12T12:41:35.414Z,2.37
2017-12-12T12:43:01.666Z,2.39
2017-12-12T12:44:28.934Z,2.33
2017-12-12T12:45:55.942Z,2.31
2017-12-12T12:47:24.175Z,2.31
2017-12-12T12:48:51.176Z,2.29
2017-12-12T12:50:17.547Z,2.30
2017-12-12T12:51:44.814Z,2.30
2017-12-12T12:53:12.046Z,2.32
2017-12-12T12:54:39.253Z,2.36
2017-12-12T12:56:06.445Z,2.34
2017-12-12T12:57:33.757Z,2.34
2017-12-12T12:59:01.079Z,2.32
2017-12-12T13:00:29.126Z,2.28
2017-12-12T13:01:55.288Z,2.31
2017-12-12T13:03:23.365Z,2.30
2017-12-12T13:04:49.510Z,2.30
2017-12-12T13:06:17.702Z,2.28
2017-12-12T13:07:44.021Z,2.29
2017-12-12T13:09:11.327Z,2.31
2017-12-12T13:10:38.425Z,2.33
2017-12-12T13:12:05.384Z,2.34
2017-12-12T13:13:32.615Z,2.31
2017-12-12T13:15:00.797Z,2.28
2017-12-12T13:16:28.245Z,2.21
2017-12-12T13:17:55.301Z,2.24
2017-12-12T13:19:22.535Z,2.25
2017-12-12T13:20:48.715Z,2.20
2017-12-12T13:22:17.089Z,2.13
2017-12-12T13:23:44.206Z,2.08
2017-12-12T13:25:10.388Z,2.09
2017-12-12T13:26:38.460Z,2.10
2017-12-12T13:28:05.359Z,2.13
2017-12-12T13:29:31.736Z,2.15
2017-12-12T13:30:58.946Z,2.15
2017-12-12T13:32:26.118Z,2.16
2017-12-12T13:33:56.377Z,2.14
2017-12-12T13:35:21.562Z,2.11
2017-12-12T13:36:48.670Z,2.13
2017-12-12T13:38:15.993Z,2.12
2017-12-12T13:39:42.297Z,2.08
2017-12-12T13:41:09.226Z,2.07
2017-12-12T13:42:37.190Z,2.05
2017-12-12T13:44:04.333Z,2.08
2017-12-12T13:45:30.355Z,2.10
2017-12-12T13:46:57.396Z,2.09
2017-12-12T13:48:24.583Z,2.08
2017-12-12T13:49:51.793Z,2.09
2017-12-12T13:51:19.012Z,2.10
2017-12-12T13:52:46.296Z,2.09
2017-12-12T13:54:14.292Z,2.10
2017-12-12T13:55:41.588Z,2.07
2017-12-12T13:57:07.575Z,2.05
2017-12-12T13:58:35.836Z,2.03
2017-12-12T14:00:02.095Z,2.01
2017-12-12T14:01:30.327Z,2.02
2017-12-12T14:02:56.256Z,1.99
2017-12-12T14:04:24.588Z,1.97
2017-12-12T14:05:51.622Z,1.96
2017-12-12T14:07:18.851Z,1.95
2017-12-12T14:08:45.965Z,1.96
2017-12-12T14:10:13.211Z,1.94
2017-12-12T14:11:40.432Z,1.95
2017-12-12T14:13:07.266Z,1.90
2017-12-12T14:14:33.362Z,1.88
2017-12-12T14:16:00.629Z,1.86
2017-12-12T14:17:27.737Z,1.86
2017-12-12T14:18:54.949Z,1.85
2017-12-12T14:20:23.240Z,1.91
2017-12-12T14:21:49.368Z,1.94
2017-12-12T14:23:16.531Z,1.97
2017-12-12T14:24:44.666Z,1.92
2017-12-12T14:26:11.043Z,1.88
2017-12-12T14:27:39.081Z,1.87
2017-12-12T14:29:06.301Z,1.86
2017-12-12T14:30:32.481Z,1.88
2017-12-12T14:32:00.632Z,1.83
2017-12-12T14:33:26.870Z,1.82
2017-12-12T14:34:55.050Z,1.80
2017-12-12T14:36:21.146Z,1.78
2017-12-12T14:37:49.435Z,1.74
2017-12-12T14:39:16.805Z,1.72
2017-12-12T14:40:44.030Z,1.69
2017-12-12T14:42:11.150Z,1.69
2017-12-12T14:43:38.119Z,1.73
2017-12-12T14:45:05.396Z,1.73
2017-12-12T14:46:32.613Z,1.75
2017-12-12T14:47:59.822Z,1.75
2017-12-12T14:49:27.057Z,1.77
2017-12-12T14:50:53.117Z,1.74
2017-12-12T14:52:20.373Z,1.76
2017-12-12T14:53:47.506Z,1.72
2017-12-12T14:55:14.794Z,1.74
2017-12-12T14:56:42.911Z,1.70
2017-12-12T14:58:09.177Z,1.71
2017-12-12T14:59:36.189Z,1.73
2017-12-12T15:01:04.544Z,1.79
2017-12-12T15:02:30.773Z,1.74
2017-12-12T15:03:57.892Z,1.70
2017-12-12T15:05:25.064Z,1.68
2017-12-12T15:06:52.203Z,1.63
2017-12-12T15:08:19.564Z,1.59
2017-12-12T15:09:46.816Z,1.61
2017-12-12T15:11:13.985Z,1.63
2017-12-12T15:12:41.064Z,1.66
2017-12-12T15:14:08.294Z,1.70
2017-12-12T15:15:36.524Z,1.71
2017-12-12T15:17:03.526Z,1.68
2017-12-12T15:18:29.651Z,1.69
2017-12-12T15:19:57.068Z,1.66
2017-12-12T15:21:25.140Z,1.63
2017-12-12T15:22:51.364Z,1.62
2017-12-12T15:24:18.464Z,1.64
2017-12-12T15:25:46.657Z,1.69
2017-12-12T15:27:12.932Z,1.73
2017-12-12T15:28:40.118Z,1.77
2017-12-12T15:30:08.542Z,1.82
2017-12-12T15:31:35.909Z,1.81
2017-12-12T15:33:01.986Z,1.84
2017-12-12T15:34:29.202Z,1.86
2017-12-12T15:35:57.442Z,1.90
2017-12-12T15:37:23.728Z,1.91
2017-12-12T15:38:50.920Z,1.89
2017-12-12T15:40:19.124Z,1.86
2017-12-12T15:41:46.208Z,1.85
2017-12-12T15:43:13.274Z,1.85
2017-12-12T15:44:40.436Z,1.85
2017-12-12T15:46:07.436Z,1.81
2017-12-12T15:47:34.773Z,1.80
2017-12-12T15:49:01.806Z,1.80
2017-12-12T15:50:27.931Z,1.86
2017-12-12T15:51:55.100Z,1.89
2017-12-12T15:53:22.276Z,1.90
2017-12-12T15:54:49.428Z,1.91
2017-12-12T15:56:16.779Z,1.96
2017-12-12T15:57:44.994Z,1.91
2017-12-12T15:59:12.228Z,1.91
2017-12-12T16:00:39.210Z,1.94
2017-12-12T16:02:06.410Z,1.92
2017-12-12T16:03:33.531Z,1.92
2017-12-12T16:05:00.799Z,1.93
2017-12-12T16:06:27.026Z,1.90
2017-12-12T16:07:54.180Z,1.88
2017-12-12T16:09:21.335Z,1.88
2017-12-12T16:10:48.558Z,1.89
2017-12-12T16:12:16.907Z,1.90
2017-12-12T16:13:42.749Z,1.91
2017-12-12T16:15:09.761Z,1.91
2017-12-12T16:16:37.869Z,1.91
2017-12-12T16:18:05.059Z,1.92
2017-12-12T16:19:31.328Z,1.92
2017-12-12T16:20:58.498Z,1.97
2017-12-12T16:22:25.721Z,1.98
2017-12-12T16:23:53.858Z,1.98
2017-12-12T16:25:21.009Z,2.00
2017-12-12T16:26:48.106Z,2.04
2017-12-12T16:28:15.382Z,2.02
2017-12-12T16:29:42.456Z,2.02
2017-12-12T16:31:08.653Z,2.02
2017-12-12T16:32:35.841Z,2.04
2017-12-12T16:34:03.975Z,2.05
2017-12-12T16:35:31.251Z,2.10
2017-12-12T16:36:58.354Z,2.16
2017-12-12T16:38:25.787Z,2.22
2017-12-12T16:39:51.921Z,2.26
2017-12-12T16:41:19.212Z,2.29
2017-12-12T16:42:47.206Z,2.33
2017-12-12T16:44:13.593Z,2.37
2017-12-12T16:45:40.728Z,2.34
2017-12-12T16:47:08.924Z,2.31
2017-12-12T16:48:34.956Z,2.30
2017-12-12T16:50:02.153Z,2.31
2017-12-12T16:51:30.425Z,2.29
2017-12-12T16:52:57.571Z,2.26
2017-12-12T16:54:23.675Z,2.25
2017-12-12T16:55:52.046Z,2.21
2017-12-12T16:57:18.007Z,2.22
2017-12-12T16:58:46.067Z,2.21
2017-12-12T17:00:13.182Z,2.20
2017-12-12T17:01:39.487Z,2.19
2017-12-12T17:03:07.756Z,2.21
2017-12-12T17:04:34.092Z,2.26
2017-12-12T17:06:02.204Z,2.27
2017-12-12T17:07:28.375Z,2.21
2017-12-12T17:08:55.400Z,2.17
2017-12-12T17:10:22.816Z,2.15
2017-12-12T17:11:50.782Z,2.15
2017-12-12T17:13:16.906Z,2.12
2017-12-12T17:14:44.183Z,2.08
2017-12-12T17:16:11.459Z,2.10
2017-12-12T17:17:39.594Z,2.14
2017-12-12T17:19:05.498Z,2.18
2017-12-12T17:20:32.722Z,2.16
2017-12-12T17:22:01.071Z,2.14
2017-12-12T17:23:27.372Z,2.13
2017-12-12T17:24:54.549Z,2.15
2017-12-12T17:26:22.668Z,2.15
2017-12-12T17:27:48.596Z,2.20
2017-12-12T17:29:16.867Z,2.24
2017-12-12T17:30:42.941Z,2.21
2017-12-12T17:32:10.212Z,2.21
2017-12-12T17:33:38.338Z,2.19
2017-12-12T17:35:04.636Z,2.23
2017-12-12T17:36:32.635Z,2.24
2017-12-12T17:37:58.726Z,2.25
2017-12-12T17:39:25.955Z,2.27
2017-12-12T17:40:53.036Z,2.27
2017-12-12T17:42:20.278Z,2.28
2017-12-12T17:43:47.169Z,2.26
2017-12-12T17:45:15.346Z,2.27
2017-12-12T17:46:41.521Z,2.30
2017-12-12T17:48:09.646Z,2.28
2017-12-12T17:49:35.879Z,2.28
2017-12-12T17:51:03.085Z,2.31
2017-12-12T17:52:30.372Z,2.34
2017-12-12T17:53:57.499Z,2.32
2017-12-12T17:55:24.760Z,2.27
2017-12-12T17:56:51.912Z,2.26
2017-12-12T17:58:20.122Z,2.22
2017-12-12T17:59:47.127Z,2.23
2017-12-12T18:01:13.418Z,2.22
2017-12-12T18:02:41.485Z,2.22
2017-12-12T18:04:07.789Z,2.18
2017-12-12T18:05:34.864Z,2.19
2017-12-12T18:07:03.186Z,2.22
2017-12-12T18:08:29.284Z,2.24
2017-12-12T18:09:57.413Z,2.22
2017-12-12T18:11:24.462Z,2.27
2017-12-12T18:12:51.668Z,2.29
2017-12-12T18:14:17.815Z,2.28
2017-12-12T18:15:45.964Z,2.25
2017-12-12T18:17:13.171Z,2.23
2017-12-12T18:18:40.348Z,2.23
2017-12-12T18:20:06.378Z,2.19
2017-12-12T18:21:33.604Z,2.17
2017-12-12T18:23:01.953Z,2.15
2017-12-12T18:24:29.206Z,2.13
2017-12-12T18:25:56.407Z,2.12
2017-12-12T18:27:22.501Z,2.15
2017-12-12T18:28:50.815Z,2.18
2017-12-12T18:30:17.967Z,2.15
2017-12-12T18:31:44.051Z,2.08
2017-12-12T18:33:12.116Z,2.04
2017-12-12T18:34:39.333Z,1.97
2017-12-12T18:36:06.241Z,1.97
2017-12-12T18:37:33.457Z,1.97
2017-12-12T18:38:59.834Z,1.94
2017-12-12T18:40:26.953Z,1.90
2017-12-12T18:41:54.214Z,1.88
2017-12-12T18:43:22.224Z,1.87
2017-12-12T18:44:49.434Z,1.89
2017-12-12T18:46:15.369Z,1.87
2017-12-12T18:47:43.639Z,1.87
2017-12-12T18:49:09.786Z,1.84
2017-12-12T18:50:37.775Z,1.81
2017-12-12T18:52:04.868Z,1.81
2017-12-12T18:53:32.241Z,1.81
2017-12-12T18:54:59.536Z,1.85
2017-12-12T18:56:26.451Z,1.89
2017-12-12T18:57:53.855Z,1.91
2017-12-12T18:59:19.989Z,1.92
2017-12-12T19:00:48.234Z,1.95
2017-12-12T19:02:15.249Z,1.99
2017-12-12T19:03:42.450Z,1.95
2017-12-12T19:05:08.427Z,1.93
2017-12-12T19:06:36.492Z,1.95
2017-12-12T19:08:02.869Z,1.98
2017-12-12T19:09:31.130Z,1.96
2017-12-12T19:10:57.403Z,1.98
2017-12-12T19:12:24.446Z,1.93
2017-12-12T19:13:51.532Z,1.89
2017-12-12T19:15:18.850Z,1.86
2017-12-12T19:16:46.805Z,1.84
2017-12-12T19:18:13.998Z,1.89
2017-12-12T19:19:41.349Z,1.89
2017-12-12T19:21:08.489Z,1.89
2017-12-12T19:22:34.594Z,1.91